createdAt,value
2022-09-15T00:01:22.894Z,70.20
2022-09-15T00:03:51.310Z,70.30
2022-09-15T00:06:20.243Z,70.30
2022-09-15T00:08:48.504Z,70.20
2022-09-15T00:11:27.925Z,64.80
2022-09-15T00:13:57.555Z,63.70
2022-09-15T00:16:27.577Z,62.20
2022-09-15T00:18:56.182Z,62.20
2022-09-15T00:21:29.174Z,65.50
2022-09-15T00:23:57.895Z,67.30
2022-09-15T00:26:28.529Z,68.50
2022-09-15T00:28:58.655Z,69.30
2022-09-15T00:31:28.323Z,70.30
2022-09-15T00:33:58.928Z,70.80
2022-09-15T00:36:27.480Z,70.90
2022-09-15T00:38:56.132Z,71.00
2022-09-15T00:41:24.684Z,70.90
2022-09-15T00:43:59.066Z,65.30
2022-09-15T00:46:32.497Z,64.70
2022-09-15T00:49:06.841Z,62.70
2022-09-15T00:51:41.846Z,61.90
2022-09-15T00:54:18.331Z,63.70
2022-09-15T00:56:50.413Z,66.60
2022-09-15T00:59:22.100Z,67.70
2022-09-15T01:01:59.073Z,69.20
2022-09-15T01:04:27.679Z,70.00
2022-09-15T01:07:00.148Z,70.60
2022-09-15T01:09:35.789Z,70.80
2022-09-15T01:12:05.008Z,70.90
2022-09-15T01:14:33.089Z,70.80
2022-09-15T01:17:21.456Z,65.30
2022-09-15T01:20:08.311Z,64.50
2022-09-15T01:22:51.071Z,62.90
2022-09-15T01:25:56.286Z,62.30
2022-09-15T01:28:36.536Z,66.70
2022-09-15T01:31:16.909Z,68.20
2022-09-15T01:33:58.249Z,69.50
2022-09-15T01:36:50.730Z,70.60
2022-09-15T01:39:26.981Z,71.10
2022-09-15T01:42:07.803Z,71.20
2022-09-15T01:44:45.308Z,71.30
2022-09-15T01:47:16.330Z,71.10
2022-09-15T01:50:06.457Z,65.20
2022-09-15T01:52:35.075Z,64.40
2022-09-15T01:55:10.673Z,63.90
2022-09-15T01:57:38.821Z,67.40
2022-09-15T02:00:07.646Z,68.80
2022-09-15T02:03:07.935Z,69.80
2022-09-15T02:05:44.583Z,70.80
2022-09-15T02:08:37.236Z,72.00
2022-09-15T02:11:17.647Z,72.40
2022-09-15T02:13:47.690Z,72.30
2022-09-15T02:16:21.147Z,72.20
2022-09-15T02:18:54.718Z,71.00
2022-09-15T02:21:28.475Z,66.50
2022-09-15T02:24:02.331Z,65.30
2022-09-15T02:26:33.637Z,63.90
2022-09-15T02:29:06.440Z,66.60
2022-09-15T02:31:37.300Z,68.70
2022-09-15T02:34:11.335Z,69.70
2022-09-15T02:36:41.637Z,70.90
2022-09-15T02:39:13.879Z,71.70
2022-09-15T02:41:42.518Z,72.20
2022-09-15T02:44:10.952Z,72.60
2022-09-15T02:46:39.174Z,72.50
2022-09-15T02:49:07.446Z,72.50
2022-09-15T02:51:35.680Z,72.30
2022-09-15T02:54:03.790Z,66.30
2022-09-15T02:56:32.011Z,65.70
2022-09-15T02:58:59.988Z,64.50
2022-09-15T03:01:30.251Z,63.20
2022-09-15T03:03:59.168Z,66.40
2022-09-15T03:06:28.388Z,68.10
2022-09-15T03:08:58.715Z,69.40
2022-09-15T03:11:28.923Z,70.60
2022-09-15T03:13:59.405Z,71.40
2022-09-15T03:16:29.671Z,72.30
2022-09-15T03:18:59.438Z,72.00
2022-09-15T03:21:29.465Z,72.70
2022-09-15T03:23:59.103Z,72.10
2022-09-15T03:26:27.312Z,68.10
2022-09-15T03:28:55.351Z,65.80
2022-09-15T03:31:23.719Z,64.80
2022-09-15T03:33:51.959Z,63.80
2022-09-15T03:36:20.292Z,67.60
2022-09-15T03:38:48.379Z,69.40
2022-09-15T03:41:16.711Z,70.20
2022-09-15T03:43:45.189Z,71.00
2022-09-15T03:46:13.503Z,71.90
2022-09-15T03:48:41.705Z,72.60
2022-09-15T03:51:11.032Z,72.90
2022-09-15T03:53:41.052Z,72.70
2022-09-15T03:56:26.233Z,72.60
2022-09-15T03:58:54.736Z,72.60
2022-09-15T04:01:22.880Z,66.70
2022-09-15T04:03:51.944Z,66.40
2022-09-15T04:06:21.746Z,64.90
2022-09-15T04:08:51.198Z,64.50
2022-09-15T04:11:20.893Z,68.30
2022-09-15T04:13:49.780Z,69.70
2022-09-15T04:16:20.419Z,70.70
2022-09-15T04:18:48.587Z,71.70
2022-09-15T04:21:21.870Z,72.50
2022-09-15T04:23:50.750Z,72.80
2022-09-15T04:26:26.665Z,72.80
2022-09-15T04:28:55.186Z,72.80
2022-09-15T04:31:23.365Z,72.80
2022-09-15T04:33:54.398Z,69.30
2022-09-15T04:36:27.307Z,66.70
2022-09-15T04:38:55.749Z,65.60
2022-09-15T04:41:24.535Z,64.30
2022-09-15T04:43:52.985Z,67.10
2022-09-15T04:46:21.458Z,68.90
2022-09-15T04:48:49.824Z,70.20
2022-09-15T04:51:20.809Z,71.40
2022-09-15T04:53:50.257Z,72.40
2022-09-15T04:56:20.769Z,72.70
2022-09-15T04:59:03.195Z,72.90
2022-09-15T05:01:35.240Z,72.80
2022-09-15T05:04:04.569Z,73.00
2022-09-15T05:06:33.743Z,73.00
2022-09-15T05:09:05.415Z,67.70
2022-09-15T05:11:39.548Z,66.40
2022-09-15T05:14:08.552Z,65.90
2022-09-15T05:16:37.102Z,65.20
2022-09-15T05:19:05.390Z,68.90
2022-09-15T05:21:35.561Z,70.10
2022-09-15T05:24:03.702Z,71.20
2022-09-15T05:26:31.931Z,71.90
2022-09-15T05:29:00.105Z,73.00
2022-09-15T05:31:32.638Z,73.20
2022-09-15T05:34:02.759Z,73.40
2022-09-15T05:36:31.535Z,73.40
2022-09-15T05:38:59.675Z,73.30
2022-09-15T05:41:29.606Z,73.30
2022-09-15T05:43:58.970Z,67.60
2022-09-15T05:46:28.086Z,67.00
2022-09-15T05:48:59.777Z,65.70
2022-09-15T05:51:28.086Z,66.10
2022-09-15T05:53:56.411Z,69.40
2022-09-15T05:56:25.025Z,71.20
2022-09-15T05:58:53.488Z,72.10
2022-09-15T06:01:26.862Z,72.90
2022-09-15T06:03:56.354Z,73.40
2022-09-15T06:06:26.175Z,73.90
2022-09-15T06:08:58.439Z,74.20
2022-09-15T06:11:31.660Z,74.10
2022-09-15T06:14:04.186Z,74.00
2022-09-15T06:16:35.484Z,72.50
2022-09-15T06:19:04.071Z,68.50
2022-09-15T06:21:33.638Z,66.60
2022-09-15T06:24:04.037Z,66.10
2022-09-15T06:26:32.186Z,69.90
2022-09-15T06:29:02.161Z,70.80
2022-09-15T06:31:32.001Z,71.10
2022-09-15T06:34:00.865Z,72.20
2022-09-15T06:36:29.822Z,73.00
2022-09-15T06:38:58.591Z,73.50
2022-09-15T06:41:26.651Z,74.10
2022-09-15T06:43:54.760Z,74.50
2022-09-15T06:46:25.336Z,74.60
2022-09-15T06:48:53.908Z,74.70
2022-09-15T06:51:24.490Z,74.60
2022-09-15T06:53:54.371Z,70.60
2022-09-15T06:56:24.004Z,68.40
2022-09-15T06:58:52.562Z,66.90
2022-09-15T07:01:38.940Z,66.60
2022-09-15T07:04:08.000Z,70.20
2022-09-15T07:06:37.906Z,71.50
2022-09-15T07:09:07.176Z,73.20
2022-09-15T07:11:35.317Z,73.70
2022-09-15T07:14:03.450Z,74.20
2022-09-15T07:16:31.866Z,75.10
2022-09-15T07:19:00.145Z,75.30
2022-09-15T07:21:28.831Z,75.70
2022-09-15T07:24:02.659Z,75.50
2022-09-15T07:26:34.566Z,75.70
2022-09-15T07:29:05.647Z,71.20
2022-09-15T07:31:36.587Z,69.80
2022-09-15T07:34:05.458Z,68.70
2022-09-15T07:36:33.551Z,70.00
2022-09-15T07:39:03.017Z,74.40
2022-09-15T07:41:32.541Z,75.80
2022-09-15T07:44:01.633Z,76.40
2022-09-15T07:46:33.900Z,76.90
2022-09-15T07:49:02.568Z,77.40
2022-09-15T07:51:30.437Z,77.60
2022-09-15T07:53:58.821Z,77.70
2022-09-15T07:56:27.007Z,77.70
2022-09-15T07:58:55.174Z,77.60
2022-09-15T08:01:23.441Z,76.90
2022-09-15T08:03:53.061Z,71.20
2022-09-15T08:06:26.477Z,70.40
2022-09-15T08:09:00.012Z,68.90
2022-09-15T08:11:29.231Z,71.70
2022-09-15T08:14:00.674Z,73.20
2022-09-15T08:16:29.198Z,73.40
2022-09-15T08:18:57.550Z,74.70
2022-09-15T08:21:25.840Z,75.40
2022-09-15T08:24:02.920Z,76.10
2022-09-15T08:26:31.335Z,76.70
2022-09-15T08:28:59.910Z,77.00
2022-09-15T08:31:28.180Z,77.10
2022-09-15T08:33:57.265Z,77.90
2022-09-15T08:36:25.545Z,77.30
2022-09-15T08:38:53.748Z,72.50
2022-09-15T08:41:37.202Z,70.90
2022-09-15T08:44:38.220Z,69.50
2022-09-15T08:47:17.889Z,67.90
2022-09-15T08:50:15.709Z,71.60
2022-09-15T08:52:54.123Z,72.90
2022-09-15T08:55:39.221Z,74.10
2022-09-15T08:58:27.748Z,74.90
2022-09-15T09:01:04.766Z,76.20
2022-09-15T09:03:57.408Z,76.30
2022-09-15T09:06:54.859Z,76.40
2022-09-15T09:09:43.054Z,76.50
2022-09-15T09:12:14.484Z,76.40
2022-09-15T09:14:57.968Z,74.10
2022-09-15T09:17:34.286Z,70.60
2022-09-15T09:20:35.336Z,68.20
2022-09-15T09:23:06.363Z,68.10
2022-09-15T09:25:34.622Z,71.80
2022-09-15T09:28:04.063Z,72.90
2022-09-15T09:30:36.004Z,73.60
2022-09-15T09:33:04.340Z,74.60
2022-09-15T09:35:47.727Z,75.70
2022-09-15T09:38:25.607Z,76.30
2022-09-15T09:40:56.516Z,76.50
2022-09-15T09:43:28.479Z,76.60
2022-09-15T09:45:56.886Z,76.60
2022-09-15T09:48:27.458Z,76.70
2022-09-15T09:50:55.840Z,71.90
2022-09-15T09:53:31.616Z,69.90
2022-09-15T09:56:38.175Z,68.50
2022-09-15T09:59:06.702Z,67.70
2022-09-15T10:01:34.977Z,71.20
2022-09-15T10:04:19.846Z,72.70
2022-09-15T10:06:48.302Z,74.50
2022-09-15T10:09:18.765Z,75.50
2022-09-15T10:11:56.185Z,76.30
2022-09-15T10:14:32.134Z,77.30
2022-09-15T10:17:24.967Z,78.00
2022-09-15T10:19:54.536Z,78.50
2022-09-15T10:22:41.518Z,78.80
2022-09-15T10:25:22.420Z,79.20
2022-09-15T10:28:09.940Z,73.90
2022-09-15T10:30:39.189Z,72.20
2022-09-15T10:33:29.089Z,72.20
2022-09-15T10:36:06.670Z,75.00
2022-09-15T10:38:55.799Z,75.70
2022-09-15T10:41:32.558Z,76.60
2022-09-15T10:44:34.546Z,77.70
2022-09-15T10:47:24.226Z,78.70
2022-09-15T10:50:22.081Z,79.40
2022-09-15T10:53:31.576Z,80.30
2022-09-15T10:56:05.570Z,80.70
2022-09-15T10:58:57.190Z,78.30
2022-09-15T11:01:31.358Z,75.20
2022-09-15T11:04:32.033Z,73.50
2022-09-15T11:07:27.564Z,73.60
2022-09-15T11:10:33.696Z,76.10
2022-09-15T11:13:27.641Z,76.80
2022-09-15T11:16:08.193Z,78.20
2022-09-15T11:19:14.922Z,78.90
2022-09-15T11:22:14.334Z,79.70
2022-09-15T11:24:59.590Z,80.60
2022-09-15T11:27:43.019Z,81.10
2022-09-15T11:30:18.968Z,81.60
2022-09-15T11:33:25.296Z,76.60
2022-09-15T11:36:13.935Z,74.80
2022-09-15T11:38:51.011Z,72.70
2022-09-15T11:41:39.460Z,75.00
2022-09-15T11:44:25.089Z,76.40
2022-09-15T11:47:07.718Z,77.60
2022-09-15T11:49:57.107Z,78.40
2022-09-15T11:53:08.934Z,79.20
2022-09-15T11:55:50.467Z,80.40
2022-09-15T11:58:55.361Z,81.00
2022-09-15T12:01:51.331Z,81.70
2022-09-15T12:04:30.706Z,77.20
2022-09-15T12:07:06.229Z,75.10
2022-09-15T12:09:35.587Z,73.30
2022-09-15T12:12:08.985Z,71.60
2022-09-15T12:14:42.743Z,70.70
2022-09-15T12:17:25.814Z,69.20
2022-09-15T12:20:04.628Z,68.60
2022-09-15T12:22:45.998Z,71.50
2022-09-15T12:25:20.474Z,73.40
2022-09-15T12:28:22.596Z,74.80
2022-09-15T12:31:11.754Z,76.00
2022-09-15T12:34:01.627Z,77.20
2022-09-15T12:36:39.565Z,78.10
2022-09-15T12:39:42.993Z,78.60
2022-09-15T12:42:23.864Z,73.70
2022-09-15T12:45:05.300Z,72.00
2022-09-15T12:47:52.607Z,72.40
2022-09-15T12:50:23.499Z,75.40
2022-09-15T12:53:02.373Z,76.40
2022-09-15T12:55:37.038Z,77.30
2022-09-15T12:58:10.883Z,78.20
2022-09-15T13:01:00.647Z,79.20
2022-09-15T13:06:25.672Z,80.00
2022-09-15T13:09:26.763Z,74.30
2022-09-15T13:11:56.650Z,73.00
2022-09-15T13:14:24.841Z,71.00
2022-09-15T13:17:20.617Z,69.60
2022-09-15T13:19:52.288Z,68.30
2022-09-15T13:22:31.655Z,68.60
2022-09-15T13:25:11.379Z,71.40
2022-09-15T13:27:56.736Z,73.30
2022-09-15T13:30:43.235Z,74.40
2022-09-15T13:35:03.236Z,75.50
2022-09-15T13:39:39.854Z,77.40
2022-09-15T13:42:17.403Z,77.90
2022-09-15T13:44:45.633Z,79.90
2022-09-15T13:47:40.984Z,75.00
2022-09-15T13:50:38.305Z,72.90
2022-09-15T13:53:34.188Z,70.30
2022-09-15T13:56:07.875Z,68.80
2022-09-15T13:59:00.948Z,67.80
2022-09-15T14:01:33.545Z,71.00
2022-09-15T14:04:11.877Z,72.70
2022-09-15T14:06:42.865Z,74.00
2022-09-15T14:09:29.679Z,74.70
2022-09-15T14:12:05.476Z,75.40
2022-09-15T14:14:39.489Z,76.00
2022-09-15T14:17:28.925Z,76.70
2022-09-15T14:20:00.026Z,77.20
2022-09-15T14:22:30.875Z,71.20
2022-09-15T14:25:01.564Z,71.00
2022-09-15T14:27:33.556Z,69.40
2022-09-15T14:30:09.665Z,67.80
2022-09-15T14:32:45.946Z,67.10
2022-09-15T14:35:20.879Z,69.60
2022-09-15T14:37:57.587Z,71.80
2022-09-15T14:40:30.310Z,72.70
2022-09-15T14:42:58.692Z,73.70
2022-09-15T14:48:28.424Z,75.90
2022-09-15T14:51:03.400Z,76.50
2022-09-15T14:53:35.591Z,76.70
2022-09-15T14:56:11.923Z,77.00
2022-09-15T14:58:46.149Z,71.80
2022-09-15T15:01:32.849Z,70.40
2022-09-15T15:04:08.975Z,68.50
2022-09-15T15:06:42.898Z,67.10
2022-09-15T15:09:23.476Z,66.30
2022-09-15T15:11:58.582Z,69.90
2022-09-15T15:14:27.208Z,71.30
2022-09-15T15:17:04.812Z,72.50
2022-09-15T15:19:34.433Z,73.50
2022-09-15T15:22:17.230Z,74.30
2022-09-15T15:24:49.141Z,74.80
2022-09-15T15:27:35.633Z,75.10
2022-09-15T15:30:25.764Z,75.50
2022-09-15T15:32:54.850Z,75.10
2022-09-15T15:35:24.077Z,69.60
2022-09-15T15:38:06.877Z,69.10
2022-09-15T15:40:37.706Z,67.10
2022-09-15T15:43:24.697Z,67.20
2022-09-15T15:45:59.333Z,70.30
2022-09-15T15:48:37.360Z,71.90
2022-09-15T15:51:06.860Z,73.00
2022-09-15T15:53:35.184Z,74.10
2022-09-15T15:56:03.718Z,74.80
2022-09-15T15:58:31.951Z,75.30
2022-09-15T16:01:00.168Z,75.50
2022-09-15T16:03:28.561Z,75.80
2022-09-15T16:06:00.661Z,75.90
2022-09-15T16:08:32.489Z,69.90
2022-09-15T16:11:02.925Z,68.90
2022-09-15T16:13:31.317Z,66.50
2022-09-15T16:16:00.810Z,65.50
2022-09-15T16:18:29.760Z,64.50
2022-09-15T16:20:57.938Z,64.70
2022-09-15T16:23:27.064Z,68.80
2022-09-15T16:26:08.638Z,70.30
2022-09-15T16:28:38.676Z,71.40
2022-09-15T16:31:09.598Z,72.50
2022-09-15T16:33:38.299Z,73.20
2022-09-15T16:36:07.086Z,73.70
2022-09-15T16:38:36.642Z,73.80
2022-09-15T16:41:11.014Z,73.90
2022-09-15T16:43:39.188Z,74.00
2022-09-15T16:46:09.303Z,68.20
2022-09-15T16:48:38.728Z,67.40
2022-09-15T16:51:23.362Z,65.40
2022-09-15T16:53:55.263Z,65.20
2022-09-15T16:56:23.311Z,65.10
2022-09-15T16:58:54.787Z,68.40
2022-09-15T17:01:25.588Z,70.00
2022-09-15T17:03:53.959Z,71.00
2022-09-15T17:06:22.455Z,72.10
2022-09-15T17:08:50.732Z,72.70
2022-09-15T17:11:20.902Z,73.30
2022-09-15T17:13:49.186Z,73.50
2022-09-15T17:16:20.119Z,73.80
2022-09-15T17:18:49.012Z,73.90
2022-09-15T17:21:18.401Z,68.70
2022-09-15T17:23:49.072Z,66.90
2022-09-15T17:26:27.583Z,65.70
2022-09-15T17:28:59.568Z,64.30
2022-09-15T17:31:27.829Z,64.40
2022-09-15T17:33:55.984Z,68.00
2022-09-15T17:36:24.229Z,69.50
2022-09-15T17:38:52.372Z,70.60
2022-09-15T17:41:21.688Z,71.80
2022-09-15T17:43:50.922Z,72.40
2022-09-15T17:46:19.371Z,72.70
2022-09-15T17:48:47.524Z,73.10
2022-09-15T17:51:17.054Z,73.10
2022-09-15T17:53:45.743Z,73.30
2022-09-15T17:56:13.655Z,67.60
2022-09-15T17:58:42.004Z,67.00
2022-09-15T18:01:13.798Z,65.40
2022-09-15T18:03:44.647Z,63.90
2022-09-15T18:06:13.057Z,64.30
2022-09-15T18:08:41.203Z,68.00
2022-09-15T18:11:13.644Z,70.00
2022-09-15T18:13:41.860Z,71.10
2022-09-15T18:16:14.901Z,72.40
2022-09-15T18:18:43.481Z,73.80
2022-09-15T18:21:29.239Z,75.90
2022-09-15T18:23:57.656Z,71.80
2022-09-15T18:26:26.827Z,69.60
2022-09-15T18:28:55.449Z,68.90
2022-09-15T18:31:23.913Z,71.40
2022-09-15T18:33:52.263Z,73.90
2022-09-15T18:36:20.387Z,75.60
2022-09-15T18:38:48.609Z,76.80
2022-09-15T18:41:16.935Z,72.50
2022-09-15T18:43:45.283Z,70.90
2022-09-15T18:46:13.758Z,69.40
2022-09-15T18:48:42.358Z,71.80
2022-09-15T18:51:13.839Z,74.00
2022-09-15T18:53:52.056Z,75.60
2022-09-15T18:56:22.347Z,77.40
2022-09-15T18:58:53.991Z,72.20
2022-09-15T19:01:22.573Z,70.60
2022-09-15T19:03:50.686Z,69.90
2022-09-15T19:06:18.865Z,71.40
2022-09-15T19:08:47.118Z,73.90
2022-09-15T19:11:15.466Z,75.80
2022-09-15T19:13:44.372Z,77.10
2022-09-15T19:16:12.329Z,72.90
2022-09-15T19:18:40.640Z,71.40
2022-09-15T19:21:11.098Z,71.10
2022-09-15T19:23:39.579Z,71.00
2022-09-15T19:26:10.613Z,73.80
2022-09-15T19:28:39.051Z,76.10
2022-09-15T19:31:07.406Z,77.70
2022-09-15T19:33:36.067Z,73.90
2022-09-15T19:36:27.056Z,72.80
2022-09-15T19:38:55.020Z,71.10
2022-09-15T19:41:23.285Z,70.90
2022-09-15T19:43:51.507Z,73.80
2022-09-15T19:46:22.346Z,75.10
2022-09-15T19:48:51.706Z,75.90
2022-09-15T19:51:20.596Z,77.00
2022-09-15T19:53:49.213Z,73.40
2022-09-15T19:56:20.460Z,71.90
2022-09-15T19:58:48.924Z,70.80
2022-09-15T20:01:17.456Z,69.00
2022-09-15T20:03:45.988Z,67.90
2022-09-15T20:06:14.340Z,67.80
2022-09-15T20:08:42.448Z,69.90
2022-09-15T20:11:10.798Z,71.50
2022-09-15T20:13:38.881Z,72.70
2022-09-15T20:16:08.178Z,73.60
2022-09-15T20:18:36.391Z,74.60
2022-09-15T20:21:06.891Z,75.20
2022-09-15T20:23:35.688Z,75.80
2022-09-15T20:26:05.382Z,76.40
2022-09-15T20:28:34.250Z,76.60
2022-09-15T20:31:09.598Z,72.40
2022-09-15T20:33:39.516Z,71.80
2022-09-15T20:36:10.789Z,69.40
2022-09-15T20:38:39.693Z,68.10
2022-09-15T20:41:08.509Z,67.60
2022-09-15T20:43:38.381Z,70.40
2022-09-15T20:46:08.878Z,71.80
2022-09-15T20:48:37.848Z,73.30
2022-09-15T20:51:05.916Z,74.00
2022-09-15T20:53:36.071Z,74.40
2022-09-15T20:56:04.881Z,75.10
2022-09-15T20:58:36.248Z,76.10
2022-09-15T21:01:20.721Z,76.80
2022-09-15T21:03:49.070Z,77.50
2022-09-15T21:06:25.428Z,72.00
2022-09-15T21:08:55.334Z,70.20
2022-09-15T21:11:25.323Z,68.50
2022-09-15T21:13:56.619Z,67.20
2022-09-15T21:16:27.908Z,67.90
2022-09-15T21:18:59.966Z,70.90
2022-09-15T21:21:32.351Z,73.10
2022-09-15T21:24:05.967Z,74.40
2022-09-15T21:26:37.186Z,75.20
2022-09-15T21:29:05.365Z,76.20
2022-09-15T21:31:33.845Z,76.80
2022-09-15T21:34:01.995Z,77.30
2022-09-15T21:36:31.563Z,77.00
2022-09-15T21:39:00.347Z,71.20
2022-09-15T21:41:29.569Z,70.00
2022-09-15T21:43:58.318Z,68.70
2022-09-15T21:46:28.719Z,67.40
2022-09-15T21:48:58.645Z,66.50
2022-09-15T21:51:28.372Z,69.10
2022-09-15T21:53:58.711Z,71.00
2022-09-15T21:56:28.680Z,72.00
2022-09-15T21:58:57.312Z,73.00
2022-09-15T22:01:30.569Z,74.00
2022-09-15T22:04:01.117Z,74.90
2022-09-15T22:06:32.221Z,75.60
2022-09-15T22:09:02.014Z,76.10
2022-09-15T22:11:30.402Z,76.60
2022-09-15T22:13:58.578Z,71.80
2022-09-15T22:16:26.866Z,71.30
2022-09-15T22:18:55.698Z,69.90
2022-09-15T22:21:26.341Z,69.00
2022-09-15T22:23:58.560Z,67.70
2022-09-15T22:26:29.878Z,68.30
2022-09-15T22:29:00.324Z,71.60
2022-09-15T22:31:29.582Z,73.40
2022-09-15T22:33:58.086Z,74.20
2022-09-15T22:36:30.006Z,75.40
2022-09-15T22:39:00.202Z,76.60
2022-09-15T22:41:28.452Z,76.50
2022-09-15T22:43:56.703Z,76.90
2022-09-15T22:46:25.064Z,77.20
2022-09-15T22:48:53.351Z,71.20
2022-09-15T22:51:21.705Z,70.40
2022-09-15T22:53:52.871Z,68.70
2022-09-15T22:56:21.300Z,67.80
2022-09-15T22:58:50.427Z,66.90
2022-09-15T23:01:21.239Z,68.90
2022-09-15T23:03:54.048Z,71.20
2022-09-15T23:06:22.819Z,72.50
2022-09-15T23:08:55.688Z,73.50
2022-09-15T23:11:24.987Z,74.50
2022-09-15T23:13:53.786Z,75.40
2022-09-15T23:16:23.780Z,76.00
2022-09-15T23:18:52.749Z,76.50
2022-09-15T23:21:21.930Z,76.80
2022-09-15T23:23:50.545Z,71.20
2022-09-15T23:26:19.425Z,70.10
2022-09-15T23:28:47.362Z,69.40
2022-09-15T23:31:16.151Z,67.90
2022-09-15T23:33:44.484Z,67.10
2022-09-15T23:36:15.603Z,69.80
2022-09-15T23:38:45.902Z,71.80
2022-09-15T23:41:15.335Z,73.10
2022-09-15T23:43:45.343Z,73.80
2022-09-15T23:46:13.833Z,74.90
2022-09-15T23:48:42.227Z,75.60
2022-09-15T23:51:10.747Z,76.10
2022-09-15T23:53:38.904Z,76.40
2022-09-15T23:56:07.419Z,76.90
2022-09-15T23:58:35.739Z,71.20
